This is the latest recevied weather packets stored in our database for station/object S57RZ-1. If no packets are shown the sender has not sent any weather packets the latest 10 day(s).
| Time | Temp. | Humidity | Pressure | Rain* | Wind** | Luminosity | Snow |
|---|---|---|---|---|---|---|---|
| 1777829132 | 22.22° C | 34% | 9974.2 hPa | 0 mm | - | - | - |
| 1777829078 | 22.22° C | 34% | 9974.2 hPa | 0 mm | - | - | - |
| 1777828178 | 23.33° C | 33% | 9973.9 hPa | 0 mm | - | - | - |
| 1777827878 | 23.89° C | 33% | 9973.9 hPa | 0 mm | - | - | - |
| 1777826078 | 26.11° C | 31% | 9973.8 hPa | 0 mm | - | - | - |
| 1777825478 | 26.67° C | 31% | 9973.8 hPa | 0 mm | - | - | - |
| 1777824878 | 26.67° C | 31% | 9973.8 hPa | 0 mm | - | - | - |
| 1777824278 | 26.11° C | 32% | 9973.8 hPa | 0 mm | - | - | - |
| 1777823078 | 26.11° C | 31% | 9973.7 hPa | 0 mm | - | - | - |
| 1777821578 | 28.89° C | 26% | 9973.8 hPa | 0 mm | - | - | - |
| 1777820678 | 33.33° C | 24% | 9973.9 hPa | 0 mm | - | - | - |
| 1777820378 | 32.78° C | 25% | 9973.9 hPa | 0 mm | - | - | - |
| 1777820078 | 30° C | 28% | 9973.9 hPa | 0 mm | - | - | - |
| 1777819478 | 27.22° C | 31% | 9973.9 hPa | 0 mm | - | - | - |
| 1777818278 | 26.67° C | 30% | 9973.9 hPa | 0 mm | - | - | - |
| 1777817078 | 26.67° C | 32% | 9973.9 hPa | 0 mm | - | - | - |
| 1777816478 | 26.67° C | 34% | 9974.2 hPa | 0 mm | - | - | - |
| 1777814680 | 26.11° C | 32% | 9974.4 hPa | 0 mm | - | - | - |
| 1777813178 | 26.11° C | 34% | 9974.6 hPa | 0 mm | - | - | - |
| 1777812578 | 25.56° C | 35% | 9974.6 hPa | 0 mm | - | - | - |
| 1777809278 | 24.44° C | 36% | 9975 hPa | 0 mm | - | - | - |
| 1777808978 | 24.44° C | 39% | 9974.8 hPa | 0 mm | - | - | - |
| 1777806278 | 22.78° C | 40% | 9975.3 hPa | 0 mm | - | - | - |
| 1777805078 | 22.78° C | 47% | 9975.5 hPa | 0 mm | - | - | - |
| 1777804183 | 21.67° C | 48% | 9975.8 hPa | 0 mm | - | - | - |
* Rain latest hour (hover to see other rain measurements)
** Current wind speed in m/s (hover to see current wind gust speed)